Salado, Texas
Current Conditions -  °F | °C
As of 10:35 PM on Thursday 18 Dec 2014 (Local Time) from KILE Reporting Station
Overcast Overcast  
Wind Chill: 43°   Ceiling: 600
Heat Index: 48°   Visibility: 10mi
Dew Point: 41°   Wind: 13mph
Humidity: 76%   Direction: 20°NNE
Pressure: 30.1"   Gusts: NA
Location:  30.95°N, 97.54°W
Report Text: KILE 190435Z AUTO 02011KT 10SM OVC006 09/05 A3010 RMK AO1
Loading
Personal Weather Stations






























Interactive Weather Map New forecast layout! Learn more

10-Day Weather Forecast

Advertisements
Track Severe Weather on mobile